Terminal Aerodrome Forecast
Issued by NWS Paducah, KY

Home | Current Version | Previous Version | Graphics & Text | Print | Product List | Glossary On
Versions: 1 2 3 4 5 6 7 8 9 10 11 12 13 14
000
FTUS43 KPAH 241100
TAFEVV
TAF
KEVV 241123Z 2412/2512 00000KT P6SM OVC035
     FM241700 23004KT P6SM SCT035 BKN250
     FM250000 VRB02KT P6SM SCT250
     FM250900 20002KT 5SM BR SCT020=

USA.gov is the U.S. government's official web portal to all federal, state and local government web resources and services.